Time;durP1;ratioP1;P1;durP2;ratioP2;P2;SDS_P1;SDS_P2;PMS_P1;PMS_P2;Temp;Humidity;BMP_temperature;BMP_pressure;BME280_temperature;BME280_humidity;BME280_pressure;Samples;Min_cycle;Max_cycle;Signal;HPM_P1;HPM_P2
2021/12/20 00:02:10;;;;;;;4.47;3.07;;;;;;;;;;4969187;28;20523;-60
2021/12/20 00:04:36;;;;;;;6.77;2.70;;;;;;;;;;4970424;28;20058;-59
2021/12/20 00:07:03;;;;;;;6.60;2.90;;;;;;;;;;4974130;28;20027;-61
2021/12/20 00:09:30;;;;;;;21.97;2.87;;;;;;;;;;4977766;28;20432;-60
2021/12/20 00:11:57;;;;;;;3.70;2.40;;;;;;;;;;4975911;28;20378;-60
2021/12/20 00:14:27;;;;;;;6.43;2.70;;;;;;;;;;4973617;28;20030;-60
2021/12/20 00:16:54;;;;;;;4.40;2.57;;;;;;;;;;4972776;28;20156;-60
2021/12/20 00:19:21;;;;;;;6.10;2.73;;;;;;;;;;4969473;28;20482;-60
2021/12/20 00:21:48;;;;;;;5.27;2.87;;;;;;;;;;4968788;28;20540;-61
2021/12/20 00:24:14;;;;;;;5.43;2.60;;;;;;;;;;4969325;28;20526;-61
2021/12/20 00:26:41;;;;;;;4.77;1.70;;;;;;;;;;4968592;28;20022;-60
2021/12/20 00:29:08;;;;;;;5.83;2.70;;;;;;;;;;4974256;28;20556;-59
2021/12/20 00:31:35;;;;;;;5.57;3.40;;;;;;;;;;4974492;28;20061;-59
2021/12/20 00:34:06;;;;;;;9.17;3.20;;;;;;;;;;4970161;28;20146;-61
2021/12/20 00:36:33;;;;;;;6.77;3.10;;;;;;;;;;4972569;28;20027;-61
2021/12/20 00:41:45;;;;;;;6.93;2.50;;;;;;;;;;4970168;28;20422;-61
2021/12/20 00:44:12;;;;;;;5.90;3.27;;;;;;;;;;4968564;28;20031;-60
2021/12/20 00:46:39;;;;;;;6.00;2.80;;;;;;;;;;4968848;28;20030;-60
2021/12/20 00:49:06;;;;;;;4.90;3.10;;;;;;;;;;4967246;28;20549;-60
2021/12/20 00:51:32;;;;;;;8.50;3.50;;;;;;;;;;4973233;28;20046;-59
2021/12/20 00:53:59;;;;;;;9.53;4.83;;;;;;;;;;4973841;28;20356;-60
2021/12/20 00:56:26;;;;;;;7.00;4.53;;;;;;;;;;4973564;28;20022;-60
2021/12/20 00:58:53;;;;;;;7.70;4.10;;;;;;;;;;4973455;28;20050;-60
2021/12/20 01:01:20;;;;;;;7.27;4.63;;;;;;;;;;4973922;28;20141;-59
2021/12/20 01:03:46;;;;;;;7.90;4.73;;;;;;;;;;4968853;28;20497;-60
2021/12/20 01:06:13;;;;;;;7.40;4.10;;;;;;;;;;4967984;28;20039;-60
2021/12/20 01:08:41;;;;;;;6.60;3.57;;;;;;;;;;4968097;28;20039;-60
2021/12/20 01:11:08;;;;;;;5.53;3.50;;;;;;;;;;4968000;28;20809;-60
2021/12/20 01:13:40;;;;;;;7.43;3.70;;;;;;;;;;4971910;28;20030;-59
2021/12/20 01:16:07;;;;;;;4.87;3.67;;;;;;;;;;4973747;28;20031;-60
2021/12/20 01:18:34;;;;;;;7.47;3.27;;;;;;;;;;4973398;28;20014;-59
2021/12/20 01:21:01;;;;;;;5.60;3.57;;;;;;;;;;4973332;28;20043;-59
2021/12/20 01:23:28;;;;;;;8.40;2.67;;;;;;;;;;4972915;28;20058;-60
2021/12/20 01:25:55;;;;;;;3.53;2.10;;;;;;;;;;4969297;28;20038;-60
2021/12/20 01:28:22;;;;;;;3.90;2.27;;;;;;;;;;4967511;28;20031;-60
2021/12/20 01:30:49;;;;;;;4.67;2.30;;;;;;;;;;4967713;28;20453;-59
2021/12/20 01:33:16;;;;;;;7.10;3.10;;;;;;;;;;4967802;28;20027;-61
2021/12/20 01:35:42;;;;;;;6.30;2.93;;;;;;;;;;4970806;28;20019;-59
2021/12/20 01:38:10;;;;;;;7.10;3.57;;;;;;;;;;4973100;28;20027;-60
2021/12/20 01:40:37;;;;;;;8.50;3.83;;;;;;;;;;4973014;28;20411;-59
2021/12/20 01:43:06;;;;;;;9.07;3.33;;;;;;;;;;4973013;28;20378;-59
2021/12/20 01:45:33;;;;;;;5.33;3.53;;;;;;;;;;4973337;28;20537;-59
2021/12/20 01:48:04;;;;;;;6.43;3.30;;;;;;;;;;4969946;28;20039;-61
2021/12/20 01:50:47;;;;;;;5.13;2.97;;;;;;;;;;4967551;28;20046;-60
2021/12/20 01:53:15;;;;;;;9.67;4.10;;;;;;;;;;4967255;28;20027;-60
2021/12/20 01:55:42;;;;;;;7.53;3.83;;;;;;;;;;4968064;28;20039;-60
2021/12/20 01:58:09;;;;;;;5.33;3.50;;;;;;;;;;4970411;28;20215;-60
2021/12/20 02:00:37;;;;;;;10.23;3.97;;;;;;;;;;4972770;28;20371;-60
2021/12/20 02:03:04;;;;;;;6.63;3.53;;;;;;;;;;4973170;28;20038;-59
2021/12/20 02:08:21;;;;;;;8.07;4.18;;;;;;;;;;4972693;28;20035;-59
2021/12/20 02:10:49;;;;;;;9.80;4.10;;;;;;;;;;4949577;28;20094;-59
2021/12/20 02:13:16;;;;;;;8.77;4.00;;;;;;;;;;4949231;28;20043;-60
2021/12/20 02:15:44;;;;;;;10.40;4.37;;;;;;;;;;4967255;28;20165;-60
2021/12/20 02:18:11;;;;;;;12.97;4.63;;;;;;;;;;4967063;28;20061;-60
2021/12/20 02:20:38;;;;;;;11.57;4.33;;;;;;;;;;4956054;28;20027;-59
2021/12/20 02:23:05;;;;;;;6.30;4.20;;;;;;;;;;4972782;28;20042;-60
2021/12/20 02:25:33;;;;;;;8.47;4.37;;;;;;;;;;4972739;28;20034;-59
2021/12/20 02:28:05;;;;;;;12.50;4.40;;;;;;;;;;4972742;28;20434;-59
2021/12/20 02:38:31;;;;;;;11.53;4.73;;;;;;;;;;4951216;28;20053;-60
2021/12/20 02:41:07;;;;;;;6.53;4.63;;;;;;;;;;4965630;28;20085;-57
2021/12/20 02:43:38;;;;;;;11.90;6.07;;;;;;;;;;4967170;28;20039;-57
2021/12/20 02:46:08;;;;;;;7.63;5.13;;;;;;;;;;4972757;28;20500;-58
2021/12/20 02:48:38;;;;;;;10.33;5.43;;;;;;;;;;4972914;28;20034;-57
2021/12/20 02:51:04;;;;;;;9.53;5.27;;;;;;;;;;4972359;28;20037;-57
2021/12/20 02:53:31;;;;;;;12.37;5.20;;;;;;;;;;4972597;28;20360;-58
2021/12/20 02:55:58;;;;;;;9.77;5.77;;;;;;;;;;4967833;28;20090;-58
2021/12/20 02:58:25;;;;;;;8.67;5.80;;;;;;;;;;4966575;28;20106;-57
2021/12/20 03:00:52;;;;;;;11.53;6.87;;;;;;;;;;4967148;28;20037;-58
2021/12/20 03:03:19;;;;;;;7.93;5.10;;;;;;;;;;4966952;28;20030;-57
2021/12/20 03:05:46;;;;;;;7.10;4.57;;;;;;;;;;4974328;28;20031;-57
2021/12/20 03:08:13;;;;;;;7.30;4.67;;;;;;;;;;4975955;28;20035;-57
2021/12/20 03:10:42;;;;;;;8.23;5.27;;;;;;;;;;4975721;28;20034;-57
2021/12/20 03:13:10;;;;;;;12.03;5.90;;;;;;;;;;4975871;28;20415;-57
2021/12/20 03:15:37;;;;;;;9.83;6.27;;;;;;;;;;4976021;28;20089;-57
2021/12/20 03:18:03;;;;;;;13.10;6.83;;;;;;;;;;4971178;28;20772;-58
2021/12/20 03:20:30;;;;;;;10.83;6.63;;;;;;;;;;4954381;28;20478;-58
2021/12/20 03:22:57;;;;;;;13.43;6.67;;;;;;;;;;4970426;28;20039;-57
2021/12/20 03:25:24;;;;;;;10.47;6.70;;;;;;;;;;4970385;28;20356;-57
2021/12/20 03:27:51;;;;;;;10.07;7.00;;;;;;;;;;4973741;28;20035;-57
2021/12/20 03:30:18;;;;;;;17.13;9.27;;;;;;;;;;4975102;28;20037;-58
2021/12/20 03:32:44;;;;;;;19.53;9.87;;;;;;;;;;4975630;28;20081;-57
2021/12/20 03:35:11;;;;;;;19.30;9.50;;;;;;;;;;4975524;28;20030;-57
2021/12/20 03:37:39;;;;;;;13.33;8.60;;;;;;;;;;4975621;28;20077;-57
2021/12/20 03:40:06;;;;;;;15.50;7.60;;;;;;;;;;4971500;28;20029;-57
2021/12/20 03:42:34;;;;;;;13.77;7.67;;;;;;;;;;4970025;28;20034;-57
2021/12/20 03:45:01;;;;;;;10.93;7.13;;;;;;;;;;4969647;28;20031;-57
2021/12/20 03:47:28;;;;;;;12.13;6.87;;;;;;;;;;4969778;28;20037;-57
2021/12/20 03:49:55;;;;;;;16.70;7.07;;;;;;;;;;4972646;28;20116;-58
2021/12/20 03:52:21;;;;;;;9.67;7.03;;;;;;;;;;4974975;28;20018;-57
2021/12/20 03:54:48;;;;;;;10.13;7.07;;;;;;;;;;4975362;28;20102;-58
2021/12/20 03:57:15;;;;;;;10.97;6.40;;;;;;;;;;4974908;28;20378;-57
2021/12/20 03:59:42;;;;;;;10.47;6.70;;;;;;;;;;4975153;28;20025;-58
2021/12/20 04:02:09;;;;;;;9.70;6.00;;;;;;;;;;4971508;28;20043;-57
2021/12/20 04:04:35;;;;;;;8.33;6.03;;;;;;;;;;4968979;28;20026;-57
2021/12/20 04:07:02;;;;;;;9.73;6.30;;;;;;;;;;4969716;28;20502;-58
2021/12/20 04:09:29;;;;;;;8.30;5.70;;;;;;;;;;4969151;28;20031;-57
2021/12/20 04:11:56;;;;;;;8.73;5.23;;;;;;;;;;4971969;28;20043;-57
2021/12/20 04:14:22;;;;;;;9.53;5.47;;;;;;;;;;4974454;28;20023;-57
2021/12/20 04:16:49;;;;;;;8.70;5.27;;;;;;;;;;4974141;28;20022;-58
2021/12/20 04:19:16;;;;;;;11.13;6.03;;;;;;;;;;4974966;28;20121;-57
2021/12/20 04:21:43;;;;;;;9.57;5.60;;;;;;;;;;4974152;28;20069;-58
2021/12/20 04:24:09;;;;;;;10.27;5.80;;;;;;;;;;4971428;28;20031;-57
2021/12/20 04:26:36;;;;;;;7.27;5.00;;;;;;;;;;4969634;28;20078;-57
2021/12/20 04:29:03;;;;;;;9.63;6.10;;;;;;;;;;4969506;28;20026;-58
2021/12/20 04:31:31;;;;;;;7.50;5.23;;;;;;;;;;4969244;28;20038;-57
2021/12/20 04:33:57;;;;;;;14.13;8.00;;;;;;;;;;4970854;28;20479;-57
2021/12/20 04:36:24;;;;;;;7.77;5.07;;;;;;;;;;4974699;28;20031;-57
2021/12/20 04:38:51;;;;;;;8.33;5.03;;;;;;;;;;4974019;28;20039;-57
2021/12/20 04:41:18;;;;;;;8.10;5.03;;;;;;;;;;4974637;28;20027;-57
2021/12/20 04:43:44;;;;;;;8.77;5.97;;;;;;;;;;4974266;28;20486;-57
2021/12/20 04:46:11;;;;;;;11.13;6.13;;;;;;;;;;4971839;28;20035;-57
2021/12/20 04:48:38;;;;;;;13.00;5.67;;;;;;;;;;4969048;28;20534;-57
2021/12/20 04:51:05;;;;;;;8.87;5.50;;;;;;;;;;4968631;28;20029;-57
2021/12/20 04:53:32;;;;;;;9.33;5.80;;;;;;;;;;4968488;28;20117;-58
2021/12/20 04:55:58;;;;;;;13.00;6.67;;;;;;;;;;4969916;28;20015;-57
2021/12/20 04:58:25;;;;;;;10.60;5.87;;;;;;;;;;4973811;28;20030;-58
2021/12/20 05:00:52;;;;;;;8.97;6.20;;;;;;;;;;4973999;28;20039;-57
2021/12/20 05:03:19;;;;;;;12.27;5.47;;;;;;;;;;4973445;28;20039;-57
2021/12/20 05:05:45;;;;;;;10.00;6.03;;;;;;;;;;4974094;28;20031;-57
2021/12/20 05:08:13;;;;;;;12.37;6.37;;;;;;;;;;4972130;28;20038;-60
2021/12/20 05:10:41;;;;;;;9.90;6.57;;;;;;;;;;4968272;28;20034;-57
2021/12/20 05:13:09;;;;;;;14.17;6.23;;;;;;;;;;4968627;28;20026;-57
2021/12/20 05:15:36;;;;;;;7.37;5.03;;;;;;;;;;4968434;28;20030;-58
2021/12/20 05:18:04;;;;;;;8.93;5.80;;;;;;;;;;4969064;28;20035;-58
2021/12/20 05:20:30;;;;;;;7.43;4.17;;;;;;;;;;4973242;28;20027;-57
2021/12/20 05:22:57;;;;;;;8.47;5.07;;;;;;;;;;4973732;28;20049;-58
2021/12/20 05:25:24;;;;;;;9.47;5.77;;;;;;;;;;4973279;28;20037;-57
2021/12/20 05:27:51;;;;;;;7.90;4.70;;;;;;;;;;4973279;28;20351;-58
2021/12/20 05:30:19;;;;;;;11.57;5.90;;;;;;;;;;4972558;28;20089;-59
2021/12/20 05:32:46;;;;;;;9.47;5.63;;;;;;;;;;4968308;28;20042;-58
2021/12/20 05:35:14;;;;;;;7.83;4.90;;;;;;;;;;4968037;28;20242;-58
2021/12/20 05:37:41;;;;;;;10.00;4.60;;;;;;;;;;4952992;28;20018;-60
2021/12/20 05:40:09;;;;;;;14.97;5.33;;;;;;;;;;4968447;28;20105;-57
2021/12/20 05:42:35;;;;;;;7.00;4.83;;;;;;;;;;4973055;28;20035;-57
2021/12/20 05:45:02;;;;;;;6.73;3.87;;;;;;;;;;4972968;28;20097;-57
2021/12/20 05:47:29;;;;;;;7.93;5.43;;;;;;;;;;4972111;28;20030;-58
2021/12/20 05:49:56;;;;;;;10.40;5.53;;;;;;;;;;4972134;28;20474;-57
2021/12/20 05:52:22;;;;;;;9.47;4.67;;;;;;;;;;4971548;28;20034;-58
2021/12/20 05:54:49;;;;;;;10.50;5.07;;;;;;;;;;4966915;28;20143;-58
2021/12/20 05:57:16;;;;;;;9.87;5.43;;;;;;;;;;4967701;28;20031;-58
2021/12/20 05:59:42;;;;;;;13.30;5.50;;;;;;;;;;4966779;28;20022;-58
2021/12/20 06:02:09;;;;;;;11.87;5.90;;;;;;;;;;4967899;28;20027;-58
2021/12/20 06:04:36;;;;;;;6.97;4.47;;;;;;;;;;4973015;28;20363;-58
2021/12/20 06:07:03;;;;;;;8.77;4.27;;;;;;;;;;4972639;28;20035;-58
2021/12/20 06:09:30;;;;;;;8.57;5.17;;;;;;;;;;4972563;28;20089;-57
2021/12/20 06:11:59;;;;;;;7.57;4.60;;;;;;;;;;4973253;28;20043;-58
2021/12/20 06:14:27;;;;;;;7.63;5.07;;;;;;;;;;4972484;28;20038;-57
2021/12/20 06:16:55;;;;;;;11.10;5.37;;;;;;;;;;4953613;28;20023;-58
2021/12/20 06:19:23;;;;;;;7.17;4.63;;;;;;;;;;4967613;28;20093;-57
2021/12/20 06:21:50;;;;;;;7.97;5.87;;;;;;;;;;4967522;28;20039;-57
2021/12/20 06:24:17;;;;;;;8.23;5.57;;;;;;;;;;4967888;28;20026;-57
2021/12/20 06:26:44;;;;;;;9.70;5.20;;;;;;;;;;4972727;28;20474;-57
2021/12/20 06:29:10;;;;;;;9.73;5.80;;;;;;;;;;4973113;28;20106;-58
2021/12/20 06:31:37;;;;;;;8.33;5.63;;;;;;;;;;4972670;28;20031;-57
2021/12/20 06:34:04;;;;;;;9.20;4.83;;;;;;;;;;4972915;28;20031;-57
2021/12/20 06:36:31;;;;;;;7.37;4.63;;;;;;;;;;4972635;28;20093;-57
2021/12/20 06:38:58;;;;;;;7.50;4.93;;;;;;;;;;4968153;28;20038;-57
2021/12/20 06:41:25;;;;;;;11.83;5.10;;;;;;;;;;4970948;28;20101;-57
2021/12/20 06:43:52;;;;;;;10.73;5.87;;;;;;;;;;4971700;28;20440;-58
2021/12/20 06:46:20;;;;;;;10.43;5.33;;;;;;;;;;4970678;28;20027;-57
2021/12/20 06:48:47;;;;;;;8.50;5.40;;;;;;;;;;4975665;28;20109;-57
2021/12/20 06:51:14;;;;;;;7.63;5.43;;;;;;;;;;4975981;28;20058;-57
2021/12/20 06:53:41;;;;;;;9.20;4.97;;;;;;;;;;4976511;28;20030;-58
2021/12/20 06:56:08;;;;;;;14.23;6.27;;;;;;;;;;4976377;28;20042;-57
2021/12/20 06:58:34;;;;;;;8.07;5.00;;;;;;;;;;4976603;28;20030;-57
2021/12/20 07:01:01;;;;;;;8.53;4.77;;;;;;;;;;4971178;28;20022;-57
2021/12/20 07:03:28;;;;;;;7.67;4.77;;;;;;;;;;4970616;28;20038;-57
2021/12/20 07:05:54;;;;;;;7.60;4.67;;;;;;;;;;4970833;28;20031;-58
2021/12/20 07:08:22;;;;;;;6.53;4.53;;;;;;;;;;4970627;28;20031;-57
2021/12/20 07:10:49;;;;;;;10.27;5.40;;;;;;;;;;4974214;28;20073;-57
2021/12/20 07:13:16;;;;;;;6.30;4.40;;;;;;;;;;4976264;28;20437;-57
2021/12/20 07:15:43;;;;;;;6.40;4.23;;;;;;;;;;4975851;28;20034;-57
2021/12/20 07:18:09;;;;;;;9.00;4.93;;;;;;;;;;4975953;28;20378;-57
2021/12/20 07:20:36;;;;;;;8.80;5.63;;;;;;;;;;4975576;28;20076;-57
2021/12/20 07:23:04;;;;;;;7.80;4.70;;;;;;;;;;4971662;28;20034;-57
2021/12/20 07:25:31;;;;;;;7.83;5.20;;;;;;;;;;4970300;28;20564;-58
2021/12/20 07:27:58;;;;;;;8.70;5.47;;;;;;;;;;4970661;28;20022;-57
2021/12/20 07:30:25;;;;;;;9.07;5.73;;;;;;;;;;4970298;28;20023;-57
2021/12/20 07:32:51;;;;;;;10.90;5.30;;;;;;;;;;4973634;28;20033;-57
2021/12/20 07:35:19;;;;;;;6.80;4.93;;;;;;;;;;4975143;28;20033;-57
2021/12/20 07:37:47;;;;;;;9.53;4.60;;;;;;;;;;4975664;28;20026;-57
2021/12/20 07:40:14;;;;;;;7.93;5.00;;;;;;;;;;4975293;28;20211;-57
2021/12/20 07:42:41;;;;;;;10.70;4.90;;;;;;;;;;4975587;28;20093;-57
2021/12/20 07:45:09;;;;;;;9.27;4.80;;;;;;;;;;4971422;28;20031;-57
2021/12/20 07:47:36;;;;;;;10.13;5.30;;;;;;;;;;4969957;28;20033;-58
2021/12/20 07:50:02;;;;;;;8.00;4.40;;;;;;;;;;4969410;28;20465;-57
2021/12/20 07:52:30;;;;;;;9.70;6.10;;;;;;;;;;4970108;28;20033;-57
2021/12/20 07:54:57;;;;;;;10.70;5.80;;;;;;;;;;4973019;28;20038;-57
2021/12/20 07:57:24;;;;;;;10.07;5.73;;;;;;;;;;4975144;28;20086;-57
2021/12/20 07:59:50;;;;;;;7.60;5.37;;;;;;;;;;4975239;28;20046;-57
2021/12/20 08:02:17;;;;;;;6.73;4.47;;;;;;;;;;4974890;28;20434;-57
2021/12/20 08:04:49;;;;;;;9.93;5.47;;;;;;;;;;4975077;28;20093;-57
2021/12/20 08:07:16;;;;;;;8.70;4.83;;;;;;;;;;4970689;28;20027;-58
2021/12/20 08:09:43;;;;;;;8.73;4.77;;;;;;;;;;4969702;28;20031;-57
2021/12/20 08:12:10;;;;;;;11.80;6.07;;;;;;;;;;4969474;28;20027;-58
2021/12/20 08:14:37;;;;;;;8.50;5.70;;;;;;;;;;4969849;28;20470;-57
2021/12/20 08:17:04;;;;;;;6.90;4.70;;;;;;;;;;4971891;28;20469;-57
2021/12/20 08:19:30;;;;;;;6.57;4.70;;;;;;;;;;4975017;28;20030;-58
2021/12/20 08:21:57;;;;;;;8.93;5.40;;;;;;;;;;4974398;28;20019;-57
2021/12/20 08:24:24;;;;;;;8.90;5.40;;;;;;;;;;4974780;28;20448;-58
2021/12/20 08:26:51;;;;;;;10.70;6.27;;;;;;;;;;4974525;28;20030;-57
2021/12/20 08:29:18;;;;;;;8.30;4.90;;;;;;;;;;4971815;28;20031;-57
2021/12/20 08:31:44;;;;;;;12.07;6.00;;;;;;;;;;4969047;28;20015;-57
2021/12/20 08:34:11;;;;;;;9.77;5.73;;;;;;;;;;4969288;28;20054;-57
2021/12/20 08:36:38;;;;;;;6.90;4.63;;;;;;;;;;4969045;28;20034;-58
2021/12/20 08:39:04;;;;;;;6.93;4.90;;;;;;;;;;4970939;28;20038;-57
2021/12/20 08:41:31;;;;;;;8.47;5.57;;;;;;;;;;4973996;28;20101;-58
2021/12/20 08:43:58;;;;;;;6.60;4.83;;;;;;;;;;4974441;28;20034;-58
2021/12/20 08:46:25;;;;;;;9.97;4.60;;;;;;;;;;4974229;28;20030;-57
2021/12/20 08:48:52;;;;;;;8.30;5.13;;;;;;;;;;4974395;28;20026;-58
2021/12/20 08:51:19;;;;;;;9.97;6.23;;;;;;;;;;4971612;28;20058;-57
2021/12/20 08:53:45;;;;;;;8.93;5.00;;;;;;;;;;4968810;28;20359;-57
2021/12/20 08:56:13;;;;;;;7.17;4.87;;;;;;;;;;4968200;28;20105;-58
2021/12/20 08:58:39;;;;;;;8.20;5.30;;;;;;;;;;4968271;28;20150;-57
2021/12/20 09:01:06;;;;;;;11.87;5.03;;;;;;;;;;4970001;28;20105;-58
2021/12/20 09:03:33;;;;;;;10.03;5.33;;;;;;;;;;4973723;28;20486;-57
2021/12/20 09:06:00;;;;;;;8.23;5.03;;;;;;;;;;4973764;28;20054;-57
2021/12/20 09:08:28;;;;;;;7.47;5.20;;;;;;;;;;4973700;28;20026;-57
2021/12/20 09:10:55;;;;;;;9.07;4.80;;;;;;;;;;4973463;28;20057;-57
2021/12/20 09:13:22;;;;;;;7.70;5.20;;;;;;;;;;4971602;28;20478;-58
2021/12/20 09:15:49;;;;;;;7.67;5.67;;;;;;;;;;4968080;28;20027;-57
2021/12/20 09:18:16;;;;;;;8.00;4.73;;;;;;;;;;4968656;28;20023;-57
2021/12/20 09:20:43;;;;;;;7.60;4.47;;;;;;;;;;4968377;28;20033;-57
2021/12/20 09:23:12;;;;;;;6.83;4.70;;;;;;;;;;4969810;28;20122;-57
2021/12/20 09:25:43;;;;;;;9.20;4.97;;;;;;;;;;4973155;28;20109;-57
2021/12/20 09:28:11;;;;;;;7.23;4.57;;;;;;;;;;4973664;28;20475;-57
2021/12/20 09:30:39;;;;;;;10.23;4.73;;;;;;;;;;4973441;28;20478;-57
2021/12/20 09:33:06;;;;;;;5.73;3.90;;;;;;;;;;4973260;28;20031;-58
2021/12/20 09:35:33;;;;;;;6.23;4.30;;;;;;;;;;4971298;28;20022;-57
2021/12/20 09:38:00;;;;;;;6.07;4.30;;;;;;;;;;4967532;28;20054;-57
2021/12/20 09:40:37;;;;;;;7.57;4.90;;;;;;;;;;4968099;28;20077;-57
2021/12/20 09:43:12;;;;;;;6.40;4.30;;;;;;;;;;4967894;28;20054;-57
2021/12/20 09:45:41;;;;;;;7.35;4.70;;;;;;;;;;4969937;28;20546;-57
2021/12/20 09:48:08;;;;;;;7.63;5.13;;;;;;;;;;4973087;28;20034;-57
2021/12/20 09:50:35;;;;;;;8.30;4.90;;;;;;;;;;4973416;28;20034;-57
2021/12/20 09:53:07;;;;;;;6.13;4.20;;;;;;;;;;4973067;28;20038;-57
2021/12/20 09:55:35;;;;;;;7.80;4.13;;;;;;;;;;4973112;28;20035;-57
2021/12/20 09:58:03;;;;;;;6.43;4.37;;;;;;;;;;4970412;28;20498;-57
2021/12/20 10:00:29;;;;;;;6.73;4.10;;;;;;;;;;4967623;28;20022;-57
2021/12/20 10:02:56;;;;;;;6.60;4.40;;;;;;;;;;4967628;28;20096;-58
2021/12/20 10:05:23;;;;;;;7.93;5.27;;;;;;;;;;4967535;28;20027;-57
2021/12/20 10:07:51;;;;;;;8.57;4.73;;;;;;;;;;4969091;28;20071;-57
2021/12/20 10:10:36;;;;;;;6.23;4.13;;;;;;;;;;4972978;28;20033;-58
2021/12/20 10:13:03;;;;;;;6.97;4.38;;;;;;;;;;4973999;28;20030;-57
2021/12/20 10:15:34;;;;;;;5.03;3.50;;;;;;;;;;4976923;28;20478;-57
2021/12/20 10:18:01;;;;;;;6.07;3.87;;;;;;;;;;4976747;28;20043;-57
2021/12/20 10:20:29;;;;;;;9.40;4.30;;;;;;;;;;4973918;28;20069;-57
2021/12/20 10:23:08;;;;;;;5.57;4.27;;;;;;;;;;4971517;28;20121;-57
2021/12/20 10:25:36;;;;;;;6.10;4.17;;;;;;;;;;4971456;28;20030;-57
2021/12/20 10:28:09;;;;;;;6.17;4.47;;;;;;;;;;4971709;28;20032;-57
2021/12/20 10:30:37;;;;;;;6.00;3.60;;;;;;;;;;4973998;28;20015;-57
2021/12/20 10:33:04;;;;;;;5.70;3.37;;;;;;;;;;4976528;28;20486;-57
2021/12/20 10:35:39;;;;;;;5.50;3.37;;;;;;;;;;4976652;28;20031;-57
2021/12/20 10:38:07;;;;;;;13.57;5.10;;;;;;;;;;4976664;28;20019;-57
2021/12/20 10:40:35;;;;;;;9.27;4.20;;;;;;;;;;4976788;28;20026;-57
2021/12/20 10:43:08;;;;;;;6.20;3.67;;;;;;;;;;4972687;28;20418;-57
2021/12/20 10:45:35;;;;;;;6.43;4.17;;;;;;;;;;4971158;28;20644;-58
2021/12/20 10:48:12;;;;;;;5.00;3.60;;;;;;;;;;4971005;28;20490;-57
2021/12/20 10:50:48;;;;;;;5.37;3.27;;;;;;;;;;4970706;28;20378;-57
2021/12/20 10:53:20;;;;;;;5.73;3.63;;;;;;;;;;4974312;28;20446;-57
2021/12/20 10:55:51;;;;;;;6.10;3.27;;;;;;;;;;4976517;28;20030;-57
2021/12/20 10:58:19;;;;;;;5.60;3.40;;;;;;;;;;4976568;28;20502;-57
2021/12/20 11:01:01;;;;;;;7.57;3.37;;;;;;;;;;4976207;28;20046;-57
2021/12/20 11:03:34;;;;;;;7.50;4.10;;;;;;;;;;4973350;28;20077;-57
2021/12/20 11:06:23;;;;;;;6.17;4.13;;;;;;;;;;4970685;28;20114;-56
2021/12/20 11:09:05;;;;;;;4.70;3.20;;;;;;;;;;4970599;28;20027;-57
2021/12/20 11:11:36;;;;;;;4.50;3.00;;;;;;;;;;4970514;28;20034;-57
2021/12/20 11:14:04;;;;;;;5.33;3.00;;;;;;;;;;4971112;28;20050;-57
2021/12/20 11:16:33;;;;;;;5.93;3.50;;;;;;;;;;4976029;28;20170;-57
2021/12/20 11:19:13;;;;;;;6.10;3.50;;;;;;;;;;4975882;28;20054;-57
2021/12/20 11:21:51;;;;;;;6.43;3.80;;;;;;;;;;4975257;28;20430;-57
2021/12/20 11:24:19;;;;;;;29.73;16.73;;;;;;;;;;4975639;28;20027;-57
2021/12/20 11:26:46;;;;;;;13.90;9.00;;;;;;;;;;4973769;28;20094;-57
2021/12/20 11:29:13;;;;;;;10.30;6.80;;;;;;;;;;4970510;28;20023;-57
2021/12/20 11:31:40;;;;;;;14.47;9.23;;;;;;;;;;4970225;28;20801;-57
2021/12/20 11:34:07;;;;;;;15.30;10.13;;;;;;;;;;4951325;29;20031;-57
2021/12/20 11:36:34;;;;;;;17.43;10.83;;;;;;;;;;4963750;28;20035;-57
2021/12/20 11:39:02;;;;;;;9.23;6.33;;;;;;;;;;4975562;28;20109;-57
2021/12/20 11:41:30;;;;;;;7.10;4.53;;;;;;;;;;4975347;28;20105;-58
2021/12/20 11:43:58;;;;;;;7.57;5.17;;;;;;;;;;4975555;28;20027;-57
2021/12/20 11:46:29;;;;;;;11.07;5.03;;;;;;;;;;4975324;28;20031;-57
2021/12/20 11:48:57;;;;;;;15.37;10.73;;;;;;;;;;4973822;28;20446;-57
2021/12/20 11:51:24;;;;;;;18.13;10.53;;;;;;;;;;4969767;28;20874;-57
2021/12/20 11:53:51;;;;;;;18.00;11.07;;;;;;;;;;4969727;28;20030;-57
2021/12/20 11:56:20;;;;;;;11.80;8.33;;;;;;;;;;4969883;28;20037;-57
2021/12/20 11:58:48;;;;;;;10.47;6.43;;;;;;;;;;4970715;28;20482;-56
2021/12/20 12:01:19;;;;;;;13.10;7.70;;;;;;;;;;4974759;28;20066;-57
2021/12/20 12:03:59;;;;;;;14.70;9.50;;;;;;;;;;4974702;28;20449;-57
2021/12/20 12:06:27;;;;;;;11.67;7.83;;;;;;;;;;4975064;28;20031;-56
2021/12/20 12:08:59;;;;;;;11.27;5.53;;;;;;;;;;4974920;28;20039;-57
2021/12/20 12:11:25;;;;;;;13.10;4.80;;;;;;;;;;4972507;28;20035;-57
2021/12/20 12:14:03;;;;;;;6.97;4.83;;;;;;;;;;4969545;28;20050;-56
2021/12/20 12:16:48;;;;;;;7.07;4.07;;;;;;;;;;4969239;28;20030;-57
2021/12/20 12:19:35;;;;;;;7.35;4.18;;;;;;;;;;4969292;28;20039;-57
2021/12/20 12:22:02;;;;;;;5.70;4.00;;;;;;;;;;4971815;28;20478;-57
2021/12/20 12:24:48;;;;;;;6.17;3.77;;;;;;;;;;4974593;28;20054;-57
2021/12/20 12:27:31;;;;;;;5.60;3.73;;;;;;;;;;4974674;28;20476;-56
2021/12/20 12:30:13;;;;;;;5.87;3.70;;;;;;;;;;4974480;28;20260;-57
2021/12/20 12:32:46;;;;;;;5.97;3.70;;;;;;;;;;4974576;28;20023;-57
2021/12/20 12:35:31;;;;;;;7.80;3.60;;;;;;;;;;4969369;28;20027;-56
2021/12/20 12:38:17;;;;;;;9.68;3.55;;;;;;;;;;4968387;28;20023;-57
2021/12/20 12:40:50;;;;;;;5.43;3.80;;;;;;;;;;4969110;28;20031;-57
2021/12/20 12:43:17;;;;;;;6.70;4.10;;;;;;;;;;4969867;28;20041;-57
2021/12/20 12:45:48;;;;;;;6.03;3.90;;;;;;;;;;4974466;28;20740;-56
2021/12/20 12:48:33;;;;;;;7.57;4.10;;;;;;;;;;4974557;28;20257;-57
2021/12/20 12:51:12;;;;;;;9.65;4.65;;;;;;;;;;4974088;28;20082;-57
2021/12/20 12:53:41;;;;;;;8.23;4.97;;;;;;;;;;4974102;28;20023;-57
2021/12/20 12:56:23;;;;;;;7.70;4.80;;;;;;;;;;4971180;28;20050;-56
2021/12/20 12:59:08;;;;;;;13.13;5.50;;;;;;;;;;4968398;28;20026;-57
2021/12/20 13:01:35;;;;;;;8.13;4.25;;;;;;;;;;4968493;28;20027;-57
2021/12/20 13:04:02;;;;;;;8.27;4.60;;;;;;;;;;4968257;28;20069;-57
2021/12/20 13:06:29;;;;;;;8.53;4.53;;;;;;;;;;4971540;28;20062;-56
2021/12/20 13:09:04;;;;;;;5.40;3.50;;;;;;;;;;5068129;28;20485;-57
2021/12/20 13:11:31;;;;;;;5.87;3.63;;;;;;;;;;5050130;28;20110;-57
2021/12/20 13:14:17;;;;;;;5.63;3.50;;;;;;;;;;5049061;28;20048;-57
2021/12/20 13:16:58;;;;;;;7.33;4.57;;;;;;;;;;5049335;28;20270;-57
2021/12/20 13:19:32;;;;;;;7.17;4.07;;;;;;;;;;5044310;28;20266;-57
2021/12/20 13:22:00;;;;;;;6.38;3.60;;;;;;;;;;5043533;28;20595;-57
2021/12/20 13:24:28;;;;;;;6.80;3.73;;;;;;;;;;5043178;28;20025;-58
2021/12/20 13:27:08;;;;;;;9.80;3.50;;;;;;;;;;5043252;28;20029;-58
2021/12/20 13:29:35;;;;;;;8.57;4.40;;;;;;;;;;5049017;28;20266;-60
2021/12/20 13:32:08;;;;;;;18.67;4.10;;;;;;;;;;5049006;28;20266;-58
2021/12/20 13:34:35;;;;;;;6.93;4.30;;;;;;;;;;5049162;28;20499;-58
2021/12/20 13:37:05;;;;;;;5.30;3.77;;;;;;;;;;5048600;28;20061;-58
2021/12/20 13:39:32;;;;;;;10.93;3.70;;;;;;;;;;5048083;28;20033;-59
2021/12/20 13:42:08;;;;;;;6.17;3.60;;;;;;;;;;5042838;28;20443;-59
2021/12/20 13:44:35;;;;;;;7.03;4.23;;;;;;;;;;5043498;28;20064;-59
2021/12/20 13:47:05;;;;;;;7.87;3.67;;;;;;;;;;5043627;28;20443;-59
2021/12/20 13:49:33;;;;;;;4.30;3.13;;;;;;;;;;5042584;28;20032;-59
2021/12/20 13:52:02;;;;;;;8.37;3.60;;;;;;;;;;5048715;28;20025;-59
2021/12/20 13:54:32;;;;;;;7.00;4.27;;;;;;;;;;5048921;28;20033;-59
2021/12/20 13:57:16;;;;;;;8.10;4.63;;;;;;;;;;5047931;28;20060;-59
2021/12/20 13:59:59;;;;;;;5.70;4.13;;;;;;;;;;5047426;28;20423;-61
2021/12/20 14:02:28;;;;;;;9.70;3.63;;;;;;;;;;5046621;28;20032;-61
2021/12/20 14:04:58;;;;;;;12.83;4.10;;;;;;;;;;5042699;28;20108;-61
2021/12/20 14:07:26;;;;;;;6.00;3.80;;;;;;;;;;5042692;28;20034;-61
2021/12/20 14:10:11;;;;;;;7.20;3.90;;;;;;;;;;5042752;28;20049;-61
2021/12/20 14:12:39;;;;;;;7.18;4.13;;;;;;;;;;5044685;28;20025;-61
2021/12/20 14:15:08;;;;;;;7.40;4.27;;;;;;;;;;5048260;28;20033;-61
2021/12/20 14:18:04;;;;;;;7.00;3.50;;;;;;;;;;5048282;28;20383;-61
2021/12/20 14:20:36;;;;;;;5.73;3.70;;;;;;;;;;5029876;28;20450;-61
2021/12/20 14:23:04;;;;;;;6.50;4.37;;;;;;;;;;5034809;28;20069;-61
2021/12/20 14:25:33;;;;;;;5.20;3.87;;;;;;;;;;5030917;28;20029;-61
2021/12/20 14:28:00;;;;;;;6.73;4.33;;;;;;;;;;5029178;28;20038;-61
2021/12/20 14:30:27;;;;;;;5.93;4.23;;;;;;;;;;5029220;28;20049;-61
2021/12/20 14:32:54;;;;;;;6.73;4.73;;;;;;;;;;5028373;28;20040;-62
2021/12/20 14:35:35;;;;;;;6.63;4.53;;;;;;;;;;5032449;28;20020;-61
2021/12/20 14:38:22;;;;;;;6.70;4.90;;;;;;;;;;5034889;28;20028;-61
2021/12/20 14:40:50;;;;;;;9.93;5.80;;;;;;;;;;5034513;28;20087;-61
2021/12/20 14:43:18;;;;;;;9.93;5.83;;;;;;;;;;5034399;28;20083;-61
2021/12/20 14:45:47;;;;;;;13.17;7.47;;;;;;;;;;5034608;28;20449;-61
2021/12/20 14:48:32;;;;;;;12.33;6.90;;;;;;;;;;5029553;28;20029;-62
2021/12/20 14:50:59;;;;;;;;;;;;;;;;;;5029316;28;20026;-62
2021/12/20 14:53:27;;;;;;;11.47;6.87;;;;;;;;;;5028287;28;20348;-61
2021/12/20 14:55:55;;;;;;;13.57;6.87;;;;;;;;;;5028331;28;20518;-61
2021/12/20 14:58:22;;;;;;;11.27;7.03;;;;;;;;;;5034005;28;20026;-61
2021/12/20 15:00:49;;;;;;;13.10;7.50;;;;;;;;;;5034330;28;20148;-61
2021/12/20 15:03:18;;;;;;;9.57;6.10;;;;;;;;;;5033465;28;20025;-61
2021/12/20 15:05:47;;;;;;;10.17;5.90;;;;;;;;;;5014369;28;20700;-61